sensor_id;sensor_type;location;lat;lon;timestamp;pressure;altitude;pressure_sealevel;temperature;humidity
47670;BME280;33408;52.062;11.722;2023-04-16T00:00:48;101111.59;;;9.17;100.00
47670;BME280;33408;52.062;11.722;2023-04-16T00:03:15;101115.06;;;9.18;100.00
47670;BME280;33408;52.062;11.722;2023-04-16T00:05:41;101114.19;;;9.16;100.00
47670;BME280;33408;52.062;11.722;2023-04-16T00:08:08;101119.38;;;9.14;100.00
47670;BME280;33408;52.062;11.722;2023-04-16T00:10:36;101120.25;;;9.16;100.00
47670;BME280;33408;52.062;11.722;2023-04-16T00:13:02;101118.53;;;9.12;100.00
47670;BME280;33408;52.062;11.722;2023-04-16T00:15:29;101120.28;;;9.10;100.00
47670;BME280;33408;52.062;11.722;2023-04-16T00:17:55;101123.72;;;9.12;100.00
47670;BME280;33408;52.062;11.722;2023-04-16T00:20:22;101115.94;;;9.12;100.00
47670;BME280;33408;52.062;11.722;2023-04-16T00:22:50;101122.84;;;9.18;100.00
47670;BME280;33408;52.062;11.722;2023-04-16T00:25:16;101115.13;;;9.04;100.00
47670;BME280;33408;52.062;11.722;2023-04-16T00:27:44;101118.56;;;9.07;100.00
47670;BME280;33408;52.062;11.722;2023-04-16T00:30:11;101115.97;;;9.10;100.00
47670;BME280;33408;52.062;11.722;2023-04-16T00:32:38;101129.75;;;9.06;100.00
47670;BME280;33408;52.062;11.722;2023-04-16T00:35:05;101138.41;;;9.08;100.00
47670;BME280;33408;52.062;11.722;2023-04-16T00:37:32;101140.09;;;9.09;100.00
47670;BME280;33408;52.062;11.722;2023-04-16T00:40:00;101130.63;;;9.08;100.00
47670;BME280;33408;52.062;11.722;2023-04-16T00:42:26;101134.88;;;9.19;100.00
47670;BME280;33408;52.062;11.722;2023-04-16T00:44:54;101140.06;;;9.14;100.00
47670;BME280;33408;52.062;11.722;2023-04-16T00:47:21;101140.09;;;9.08;100.00
47670;BME280;33408;52.062;11.722;2023-04-16T00:49:48;101146.19;;;9.04;100.00
47670;BME280;33408;52.062;11.722;2023-04-16T00:52:14;101144.44;;;9.06;100.00
47670;BME280;33408;52.062;11.722;2023-04-16T00:54:41;101142.72;;;9.05;100.00
47670;BME280;33408;52.062;11.722;2023-04-16T00:57:08;101142.75;;;8.99;100.00
47670;BME280;33408;52.062;11.722;2023-04-16T00:59:35;101143.63;;;8.98;100.00
47670;BME280;33408;52.062;11.722;2023-04-16T01:02:03;101145.38;;;8.94;100.00
47670;BME280;33408;52.062;11.722;2023-04-16T01:04:30;101138.50;;;8.84;100.00
47670;BME280;33408;52.062;11.722;2023-04-16T01:06:58;101155.75;;;8.82;100.00
47670;BME280;33408;52.062;11.722;2023-04-16T01:09:25;101151.41;;;8.88;100.00
47670;BME280;33408;52.062;11.722;2023-04-16T01:11:51;101147.13;;;8.84;100.00
47670;BME280;33408;52.062;11.722;2023-04-16T01:14:18;101158.34;;;8.82;100.00
47670;BME280;33408;52.062;11.722;2023-04-16T01:16:44;101155.75;;;8.82;100.00
47670;BME280;33408;52.062;11.722;2023-04-16T01:19:12;101156.69;;;8.70;100.00
47670;BME280;33408;52.062;11.722;2023-04-16T01:21:40;101160.13;;;8.69;100.00
47670;BME280;33408;52.062;11.722;2023-04-16T01:24:07;101159.28;;;8.62;100.00
47670;BME280;33408;52.062;11.722;2023-04-16T01:26:33;101153.31;;;8.46;100.00
47670;BME280;33408;52.062;11.722;2023-04-16T01:29:01;101167.94;;;8.47;100.00
47670;BME280;33408;52.062;11.722;2023-04-16T01:31:27;101161.88;;;8.53;100.00
47670;BME280;33408;52.062;11.722;2023-04-16T01:33:54;101163.63;;;8.54;100.00
47670;BME280;33408;52.062;11.722;2023-04-16T01:36:21;101162.78;;;8.49;100.00
47670;BME280;33408;52.062;11.722;2023-04-16T01:38:49;101167.94;;;8.53;100.00
47670;BME280;33408;52.062;11.722;2023-04-16T01:41:15;101162.72;;;8.60;100.00
47670;BME280;33408;52.062;11.722;2023-04-16T01:43:42;101164.47;;;8.50;100.00
47670;BME280;33408;52.062;11.722;2023-04-16T01:46:13;101165.34;;;8.55;100.00
47670;BME280;33408;52.062;11.722;2023-04-16T01:48:40;101162.75;;;8.43;100.00
47670;BME280;33408;52.062;11.722;2023-04-16T01:51:07;101165.34;;;8.36;100.00
47670;BME280;33408;52.062;11.722;2023-04-16T01:53:34;101166.22;;;8.48;100.00
47670;BME280;33408;52.062;11.722;2023-04-16T01:56:02;101164.50;;;8.45;100.00
47670;BME280;33408;52.062;11.722;2023-04-16T01:58:29;101173.13;;;8.46;100.00
47670;BME280;33408;52.062;11.722;2023-04-16T02:00:56;101176.56;;;8.43;100.00
47670;BME280;33408;52.062;11.722;2023-04-16T02:03:23;101174.84;;;8.44;100.00
47670;BME280;33408;52.062;11.722;2023-04-16T02:05:50;101174.81;;;8.48;100.00
47670;BME280;33408;52.062;11.722;2023-04-16T02:08:17;101174.81;;;8.40;100.00
47670;BME280;33408;52.062;11.722;2023-04-16T02:10:45;101178.28;;;8.33;100.00
47670;BME280;33408;52.062;11.722;2023-04-16T02:13:13;101183.44;;;8.38;100.00
47670;BME280;33408;52.062;11.722;2023-04-16T02:15:43;101180.84;;;8.32;100.00
47670;BME280;33408;52.062;11.722;2023-04-16T02:18:12;101184.31;;;8.28;100.00
47670;BME280;33408;52.062;11.722;2023-04-16T02:20:39;101182.59;;;8.30;100.00
47670;BME280;33408;52.062;11.722;2023-04-16T02:23:06;101186.91;;;8.32;100.00
47670;BME280;33408;52.062;11.722;2023-04-16T02:25:37;101192.06;;;8.32;100.00
47670;BME280;33408;52.062;11.722;2023-04-16T02:28:05;101196.34;;;8.35;100.00
47670;BME280;33408;52.062;11.722;2023-04-16T02:30:33;101189.50;;;8.31;100.00
47670;BME280;33408;52.062;11.722;2023-04-16T02:33:00;101191.19;;;8.33;100.00
47670;BME280;33408;52.062;11.722;2023-04-16T02:35:27;101186.91;;;8.20;100.00
47670;BME280;33408;52.062;11.722;2023-04-16T02:37:54;101192.91;;;8.28;100.00
47670;BME280;33408;52.062;11.722;2023-04-16T02:40:21;101198.09;;;8.25;100.00
47670;BME280;33408;52.062;11.722;2023-04-16T02:42:47;101197.25;;;8.26;100.00
47670;BME280;33408;52.062;11.722;2023-04-16T02:45:14;101193.78;;;8.30;100.00
47670;BME280;33408;52.062;11.722;2023-04-16T02:47:42;101196.34;;;8.24;100.00
47670;BME280;33408;52.062;11.722;2023-04-16T02:50:09;101201.50;;;8.35;100.00
47670;BME280;33408;52.062;11.722;2023-04-16T02:52:36;101205.84;;;8.24;100.00
47670;BME280;33408;52.062;11.722;2023-04-16T02:55:03;101208.41;;;8.13;100.00
47670;BME280;33408;52.062;11.722;2023-04-16T02:57:29;101207.56;;;8.17;100.00
47670;BME280;33408;52.062;11.722;2023-04-16T02:59:56;101211.00;;;8.20;100.00
47670;BME280;33408;52.062;11.722;2023-04-16T03:02:22;101206.69;;;8.21;100.00
47670;BME280;33408;52.062;11.722;2023-04-16T03:04:50;101206.72;;;8.13;100.00
47670;BME280;33408;52.062;11.722;2023-04-16T03:07:17;101207.56;;;8.12;100.00
47670;BME280;33408;52.062;11.722;2023-04-16T03:09:43;101207.56;;;8.14;100.00
47670;BME280;33408;52.062;11.722;2023-04-16T03:12:10;101212.75;;;8.12;100.00
47670;BME280;33408;52.062;11.722;2023-04-16T03:14:37;101215.31;;;8.08;100.00
47670;BME280;33408;52.062;11.722;2023-04-16T03:17:03;101220.47;;;8.17;100.00
47670;BME280;33408;52.062;11.722;2023-04-16T03:19:30;101214.47;;;8.06;100.00
47670;BME280;33408;52.062;11.722;2023-04-16T03:21:58;101223.94;;;8.07;100.00
47670;BME280;33408;52.062;11.722;2023-04-16T03:24:25;101211.00;;;8.16;100.00
47670;BME280;33408;52.062;11.722;2023-04-16T03:26:52;101220.47;;;8.09;100.00
47670;BME280;33408;52.062;11.722;2023-04-16T03:29:18;101217.06;;;8.15;100.00
47670;BME280;33408;52.062;11.722;2023-04-16T03:31:45;101217.06;;;8.15;100.00
47670;BME280;33408;52.062;11.722;2023-04-16T03:34:12;101222.22;;;7.99;100.00
47670;BME280;33408;52.062;11.722;2023-04-16T03:36:38;101225.66;;;8.04;100.00
47670;BME280;33408;52.062;11.722;2023-04-16T03:39:06;101228.22;;;8.08;100.00
47670;BME280;33408;52.062;11.722;2023-04-16T03:41:33;101227.38;;;8.12;100.00
47670;BME280;33408;52.062;11.722;2023-04-16T03:44:00;101228.22;;;8.01;100.00
47670;BME280;33408;52.062;11.722;2023-04-16T03:46:26;101229.09;;;8.02;100.00
47670;BME280;33408;52.062;11.722;2023-04-16T03:48:53;101229.97;;;8.02;100.00
47670;BME280;33408;52.062;11.722;2023-04-16T03:51:19;101235.09;;;7.90;100.00
47670;BME280;33408;52.062;11.722;2023-04-16T03:53:46;101238.56;;;7.88;100.00
47670;BME280;33408;52.062;11.722;2023-04-16T03:56:14;101242.84;;;7.96;100.00
47670;BME280;33408;52.062;11.722;2023-04-16T03:58:40;101236.00;;;7.94;100.00
47670;BME280;33408;52.062;11.722;2023-04-16T04:01:07;101240.28;;;7.81;100.00
47670;BME280;33408;52.062;11.722;2023-04-16T04:03:34;101242.00;;;8.00;100.00
47670;BME280;33408;52.062;11.722;2023-04-16T04:06:00;101249.75;;;7.97;100.00
47670;BME280;33408;52.062;11.722;2023-04-16T04:08:31;101247.16;;;7.96;100.00
47670;BME280;33408;52.062;11.722;2023-04-16T04:10:58;101254.06;;;7.94;100.00
47670;BME280;33408;52.062;11.722;2023-04-16T04:13:26;101262.66;;;7.93;100.00
47670;BME280;33408;52.062;11.722;2023-04-16T04:15:52;101257.47;;;7.87;100.00
47670;BME280;33408;52.062;11.722;2023-04-16T04:18:19;101266.06;;;7.85;100.00
47670;BME280;33408;52.062;11.722;2023-04-16T04:20:46;101269.53;;;8.01;100.00
47670;BME280;33408;52.062;11.722;2023-04-16T04:23:12;101269.56;;;7.92;100.00
47670;BME280;33408;52.062;11.722;2023-04-16T04:25:40;101273.00;;;7.97;100.00
47670;BME280;33408;52.062;11.722;2023-04-16T04:28:06;101277.28;;;8.03;100.00
47670;BME280;33408;52.062;11.722;2023-04-16T04:30:34;101279.00;;;8.04;100.00
47670;BME280;33408;52.062;11.722;2023-04-16T04:33:01;101278.16;;;8.03;100.00
47670;BME280;33408;52.062;11.722;2023-04-16T04:35:28;101281.59;;;8.06;100.00
47670;BME280;33408;52.062;11.722;2023-04-16T04:37:54;101285.03;;;8.11;100.00
47670;BME280;33408;52.062;11.722;2023-04-16T04:40:21;101278.16;;;8.00;100.00
47670;BME280;33408;52.062;11.722;2023-04-16T04:42:47;101282.44;;;8.04;100.00
47670;BME280;33408;52.062;11.722;2023-04-16T04:45:14;101284.16;;;8.01;100.00
47670;BME280;33408;52.062;11.722;2023-04-16T04:47:42;101288.44;;;7.83;100.00
47670;BME280;33408;52.062;11.722;2023-04-16T04:50:09;101291.88;;;7.89;100.00
47670;BME280;33408;52.062;11.722;2023-04-16T04:52:36;101297.94;;;7.91;100.00
47670;BME280;33408;52.062;11.722;2023-04-16T04:55:03;101294.47;;;7.90;100.00
47670;BME280;33408;52.062;11.722;2023-04-16T04:57:29;101301.38;;;7.93;100.00
47670;BME280;33408;52.062;11.722;2023-04-16T04:59:56;101302.25;;;8.06;100.00
47670;BME280;33408;52.062;11.722;2023-04-16T05:02:22;101304.81;;;7.96;100.00
47670;BME280;33408;52.062;11.722;2023-04-16T05:04:51;101308.25;;;8.03;100.00
47670;BME280;33408;52.062;11.722;2023-04-16T05:07:17;101309.97;;;7.96;100.00
47670;BME280;33408;52.062;11.722;2023-04-16T05:09:44;101310.00;;;8.06;100.00
47670;BME280;33408;52.062;11.722;2023-04-16T05:12:10;101309.16;;;8.05;100.00
47670;BME280;33408;52.062;11.722;2023-04-16T05:14:37;101313.44;;;8.09;100.00
47670;BME280;33408;52.062;11.722;2023-04-16T05:17:03;101317.72;;;7.96;100.00
47670;BME280;33408;52.062;11.722;2023-04-16T05:19:32;101323.75;;;8.03;100.00
47670;BME280;33408;52.062;11.722;2023-04-16T05:22:00;101319.44;;;7.94;100.00
47670;BME280;33408;52.062;11.722;2023-04-16T05:24:27;101321.16;;;7.98;100.00
47670;BME280;33408;52.062;11.722;2023-04-16T05:26:53;101325.50;;;8.04;100.00
47670;BME280;33408;52.062;11.722;2023-04-16T05:29:20;101316.88;;;7.94;100.00
47670;BME280;33408;52.062;11.722;2023-04-16T05:31:47;101317.72;;;7.90;100.00
47670;BME280;33408;52.062;11.722;2023-04-16T05:34:14;101318.59;;;7.92;100.00
47670;BME280;33408;52.062;11.722;2023-04-16T05:36:40;101323.75;;;7.94;100.00
47670;BME280;33408;52.062;11.722;2023-04-16T05:39:08;101331.50;;;7.92;100.00
47670;BME280;33408;52.062;11.722;2023-04-16T05:41:35;101336.66;;;8.04;100.00
47670;BME280;33408;52.062;11.722;2023-04-16T05:44:02;101336.66;;;8.01;100.00
47670;BME280;33408;52.062;11.722;2023-04-16T05:46:28;101335.81;;;8.04;100.00
47670;BME280;33408;52.062;11.722;2023-04-16T05:48:55;101343.56;;;8.09;100.00
47670;BME280;33408;52.062;11.722;2023-04-16T05:51:22;101350.44;;;7.94;100.00
47670;BME280;33408;52.062;11.722;2023-04-16T05:53:50;101346.16;;;8.02;100.00
47670;BME280;33408;52.062;11.722;2023-04-16T05:56:18;101352.16;;;8.00;100.00
47670;BME280;33408;52.062;11.722;2023-04-16T05:58:45;101360.75;;;7.97;100.00
47670;BME280;33408;52.062;11.722;2023-04-16T06:01:11;101350.47;;;8.07;100.00
47670;BME280;33408;52.062;11.722;2023-04-16T06:03:38;101357.34;;;8.08;100.00
47670;BME280;33408;52.062;11.722;2023-04-16T06:06:05;101350.44;;;8.11;100.00
47670;BME280;33408;52.062;11.722;2023-04-16T06:08:33;101352.19;;;8.11;100.00
47670;BME280;33408;52.062;11.722;2023-04-16T06:10:59;101349.56;;;8.01;100.00
47670;BME280;33408;52.062;11.722;2023-04-16T06:13:28;101360.78;;;8.00;100.00
47670;BME280;33408;52.062;11.722;2023-04-16T06:15:55;101368.53;;;8.07;100.00
47670;BME280;33408;52.062;11.722;2023-04-16T06:18:22;101361.66;;;8.06;100.00
47670;BME280;33408;52.062;11.722;2023-04-16T06:20:48;101365.13;;;8.18;100.00
47670;BME280;33408;52.062;11.722;2023-04-16T06:23:15;101366.84;;;8.19;100.00
47670;BME280;33408;52.062;11.722;2023-04-16T06:25:42;101370.25;;;8.09;100.00
47670;BME280;33408;52.062;11.722;2023-04-16T06:28:08;101371.09;;;8.13;100.00
47670;BME280;33408;52.062;11.722;2023-04-16T06:30:36;101385.72;;;8.06;100.00
47670;BME280;33408;52.062;11.722;2023-04-16T06:33:04;101384.91;;;8.19;100.00
47670;BME280;33408;52.062;11.722;2023-04-16T06:35:31;101380.59;;;8.15;100.00
47670;BME280;33408;52.062;11.722;2023-04-16T06:37:57;101388.31;;;8.11;100.00
47670;BME280;33408;52.062;11.722;2023-04-16T06:40:24;101384.03;;;8.14;100.00
47670;BME280;33408;52.062;11.722;2023-04-16T06:42:50;101388.31;;;8.08;100.00
47670;BME280;33408;52.062;11.722;2023-04-16T06:45:17;101384.03;;;8.07;100.00
47670;BME280;33408;52.062;11.722;2023-04-16T06:47:45;101391.78;;;8.20;100.00
47670;BME280;33408;52.062;11.722;2023-04-16T06:50:12;101394.34;;;8.10;100.00
47670;BME280;33408;52.062;11.722;2023-04-16T06:52:39;101390.06;;;8.15;100.00
47670;BME280;33408;52.062;11.722;2023-04-16T06:55:06;101402.09;;;8.16;100.00
47670;BME280;33408;52.062;11.722;2023-04-16T06:57:34;101390.91;;;8.08;100.00
47670;BME280;33408;52.062;11.722;2023-04-16T07:00:00;101400.41;;;8.24;100.00
47670;BME280;33408;52.062;11.722;2023-04-16T07:02:27;101398.66;;;8.11;100.00
47670;BME280;33408;52.062;11.722;2023-04-16T07:04:55;101403.88;;;8.25;100.00
47670;BME280;33408;52.062;11.722;2023-04-16T07:07:21;101403.00;;;8.19;100.00
47670;BME280;33408;52.062;11.722;2023-04-16T07:09:48;101408.16;;;8.32;100.00
47670;BME280;33408;52.062;11.722;2023-04-16T07:12:15;101403.88;;;8.32;100.00
47670;BME280;33408;52.062;11.722;2023-04-16T07:14:41;101403.88;;;8.35;100.00
47670;BME280;33408;52.062;11.722;2023-04-16T07:17:08;101410.78;;;8.41;100.00
47670;BME280;33408;52.062;11.722;2023-04-16T07:19:35;101410.75;;;8.36;100.00
47670;BME280;33408;52.062;11.722;2023-04-16T07:22:03;101415.09;;;8.47;100.00
47670;BME280;33408;52.062;11.722;2023-04-16T07:24:29;101419.41;;;8.43;100.00
47670;BME280;33408;52.062;11.722;2023-04-16T07:26:56;101415.94;;;8.41;100.00
47670;BME280;33408;52.062;11.722;2023-04-16T07:29:23;101422.88;;;8.51;100.00
47670;BME280;33408;52.062;11.722;2023-04-16T07:31:50;101425.41;;;8.33;100.00
47670;BME280;33408;52.062;11.722;2023-04-16T07:34:16;101430.56;;;8.34;100.00
47670;BME280;33408;52.062;11.722;2023-04-16T07:36:43;101422.84;;;8.40;100.00
47670;BME280;33408;52.062;11.722;2023-04-16T07:39:11;101436.63;;;8.43;100.00
47670;BME280;33408;52.062;11.722;2023-04-16T07:41:38;101437.47;;;8.29;100.00
47670;BME280;33408;52.062;11.722;2023-04-16T07:44:05;101440.88;;;8.24;100.00
47670;BME280;33408;52.062;11.722;2023-04-16T07:46:32;101442.63;;;8.42;100.00
47670;BME280;33408;52.062;11.722;2023-04-16T07:48:59;101444.41;;;8.49;100.00
47670;BME280;33408;52.062;11.722;2023-04-16T07:51:25;101440.94;;;8.47;100.00
47670;BME280;33408;52.062;11.722;2023-04-16T07:53:52;101441.81;;;8.46;100.00
47670;BME280;33408;52.062;11.722;2023-04-16T07:56:20;101452.09;;;8.33;100.00
47670;BME280;33408;52.062;11.722;2023-04-16T07:58:46;101453.84;;;8.40;100.00
47670;BME280;33408;52.062;11.722;2023-04-16T08:01:13;101455.59;;;8.48;100.00
47670;BME280;33408;52.062;11.722;2023-04-16T08:03:41;101459.06;;;8.54;100.00
47670;BME280;33408;52.062;11.722;2023-04-16T08:06:07;101462.50;;;8.49;100.00
47670;BME280;33408;52.062;11.722;2023-04-16T08:08:34;101464.19;;;8.40;100.00
47670;BME280;33408;52.062;11.722;2023-04-16T08:11:00;101458.19;;;8.55;100.00
47670;BME280;33408;52.062;11.722;2023-04-16T08:13:28;101462.50;;;8.67;100.00
47670;BME280;33408;52.062;11.722;2023-04-16T08:15:59;101463.38;;;8.55;100.00
47670;BME280;33408;52.062;11.722;2023-04-16T08:18:26;101464.19;;;8.47;100.00
47670;BME280;33408;52.062;11.722;2023-04-16T08:20:53;101466.81;;;8.54;100.00
47670;BME280;33408;52.062;11.722;2023-04-16T08:23:20;101471.94;;;8.45;100.00
47670;BME280;33408;52.062;11.722;2023-04-16T08:25:46;101471.13;;;8.71;100.00
47670;BME280;33408;52.062;11.722;2023-04-16T08:28:13;101474.59;;;8.74;100.00
47670;BME280;33408;52.062;11.722;2023-04-16T08:30:41;101479.78;;;8.73;100.00
47670;BME280;33408;52.062;11.722;2023-04-16T08:33:08;101481.50;;;8.85;100.00
47670;BME280;33408;52.062;11.722;2023-04-16T08:35:35;101484.06;;;8.75;100.00
47670;BME280;33408;52.062;11.722;2023-04-16T08:38:02;101485.81;;;8.93;100.00
47670;BME280;33408;52.062;11.722;2023-04-16T08:40:30;101488.38;;;8.76;100.00
47670;BME280;33408;52.062;11.722;2023-04-16T08:42:58;101490.97;;;8.83;100.00
47670;BME280;33408;52.062;11.722;2023-04-16T08:45:26;101496.16;;;8.92;100.00
47670;BME280;33408;52.062;11.722;2023-04-16T08:47:54;101498.75;;;8.86;100.00
47670;BME280;33408;52.062;11.722;2023-04-16T08:50:23;101499.59;;;8.80;100.00
47670;BME280;33408;52.062;11.722;2023-04-16T08:52:51;101497.88;;;8.91;100.00
47670;BME280;33408;52.062;11.722;2023-04-16T08:55:21;101496.16;;;8.93;100.00
47670;BME280;33408;52.062;11.722;2023-04-16T08:57:53;101497.84;;;8.84;100.00
47670;BME280;33408;52.062;11.722;2023-04-16T09:00:20;101498.75;;;8.90;100.00
47670;BME280;33408;52.062;11.722;2023-04-16T09:02:47;101509.94;;;9.17;100.00
47670;BME280;33408;52.062;11.722;2023-04-16T09:05:16;101509.97;;;9.03;100.00
47670;BME280;33408;52.062;11.722;2023-04-16T09:07:43;101503.06;;;8.99;100.00
47670;BME280;33408;52.062;11.722;2023-04-16T09:10:11;101505.63;;;8.87;100.00
47670;BME280;33408;52.062;11.722;2023-04-16T09:12:39;101507.34;;;9.14;100.00
47670;BME280;33408;52.062;11.722;2023-04-16T09:15:08;101516.84;;;8.98;100.00
47670;BME280;33408;52.062;11.722;2023-04-16T09:17:35;101512.53;;;9.00;100.00
47670;BME280;33408;52.062;11.722;2023-04-16T09:20:02;101513.41;;;9.04;100.00
47670;BME280;33408;52.062;11.722;2023-04-16T09:22:31;101525.47;;;8.99;100.00
47670;BME280;33408;52.062;11.722;2023-04-16T09:24:58;101524.63;;;9.29;100.00
47670;BME280;33408;52.062;11.722;2023-04-16T09:27:24;101521.09;;;9.68;100.00
47670;BME280;33408;52.062;11.722;2023-04-16T09:29:52;101521.16;;;9.45;100.00
47670;BME280;33408;52.062;11.722;2023-04-16T09:32:24;101524.63;;;9.26;100.00
47670;BME280;33408;52.062;11.722;2023-04-16T09:34:54;101532.38;;;9.21;100.00
47670;BME280;33408;52.062;11.722;2023-04-16T09:37:22;101523.78;;;9.18;100.00
47670;BME280;33408;52.062;11.722;2023-04-16T09:39:55;101536.69;;;9.10;100.00
47670;BME280;33408;52.062;11.722;2023-04-16T09:42:23;101539.28;;;9.16;100.00
47670;BME280;33408;52.062;11.722;2023-04-16T09:44:51;101539.28;;;9.47;100.00
47670;BME280;33408;52.062;11.722;2023-04-16T09:47:18;101540.13;;;9.30;100.00
47670;BME280;33408;52.062;11.722;2023-04-16T09:49:45;101545.28;;;9.34;100.00
47670;BME280;33408;52.062;11.722;2023-04-16T09:52:12;101548.75;;;9.19;100.00
47670;BME280;33408;52.062;11.722;2023-04-16T09:54:45;101555.66;;;8.93;100.00
47670;BME280;33408;52.062;11.722;2023-04-16T09:57:13;101550.44;;;8.98;100.00
47670;BME280;33408;52.062;11.722;2023-04-16T09:59:40;101556.50;;;8.89;100.00
47670;BME280;33408;52.062;11.722;2023-04-16T10:02:07;101559.97;;;9.04;100.00
47670;BME280;33408;52.062;11.722;2023-04-16T10:04:44;101553.06;;;9.06;100.00
47670;BME280;33408;52.062;11.722;2023-04-16T10:07:11;101563.41;;;9.09;100.00
47670;BME280;33408;52.062;11.722;2023-04-16T10:09:38;101559.13;;;9.39;100.00
47670;BME280;33408;52.062;11.722;2023-04-16T10:12:05;101557.38;;;9.42;100.00
47670;BME280;33408;52.062;11.722;2023-04-16T10:14:34;101553.91;;;9.65;100.00
47670;BME280;33408;52.062;11.722;2023-04-16T10:17:01;101563.41;;;9.46;100.00
47670;BME280;33408;52.062;11.722;2023-04-16T10:19:27;101558.25;;;9.55;100.00
47670;BME280;33408;52.062;11.722;2023-04-16T10:21:56;101561.69;;;9.31;100.00
47670;BME280;33408;52.062;11.722;2023-04-16T10:24:24;101564.28;;;9.54;100.00
47670;BME280;33408;52.062;11.722;2023-04-16T10:26:51;101570.34;;;9.53;100.00
47670;BME280;33408;52.062;11.722;2023-04-16T10:29:18;101564.25;;;9.77;100.00
47670;BME280;33408;52.062;11.722;2023-04-16T10:31:49;101566.81;;;9.82;100.00
47670;BME280;33408;52.062;11.722;2023-04-16T10:34:17;101569.44;;;9.60;100.00
47670;BME280;33408;52.062;11.722;2023-04-16T10:36:47;101565.09;;;9.81;100.00
47670;BME280;33408;52.062;11.722;2023-04-16T10:39:17;101568.56;;;9.72;100.00
47670;BME280;33408;52.062;11.722;2023-04-16T10:41:44;101563.41;;;9.66;100.00
47670;BME280;33408;52.062;11.722;2023-04-16T10:44:11;101563.41;;;9.51;100.00
47670;BME280;33408;52.062;11.722;2023-04-16T10:46:38;101559.94;;;9.70;100.00
47670;BME280;33408;52.062;11.722;2023-04-16T10:49:14;101563.31;;;10.06;100.00
47670;BME280;33408;52.062;11.722;2023-04-16T10:51:52;101565.03;;;10.02;100.00
47670;BME280;33408;52.062;11.722;2023-04-16T10:54:22;101571.97;;;10.08;100.00
47670;BME280;33408;52.062;11.722;2023-04-16T10:56:50;101565.03;;;10.09;100.00
47670;BME280;33408;52.062;11.722;2023-04-16T10:59:18;101569.38;;;10.08;100.00
47670;BME280;33408;52.062;11.722;2023-04-16T11:01:46;101565.88;;;10.18;100.00
47670;BME280;33408;52.062;11.722;2023-04-16T11:04:28;101566.69;;;10.42;100.00
47670;BME280;33408;52.062;11.722;2023-04-16T11:07:17;101570.19;;;10.22;100.00
47670;BME280;33408;52.062;11.722;2023-04-16T11:09:52;101570.19;;;10.24;100.00
47670;BME280;33408;52.062;11.722;2023-04-16T11:12:20;101571.84;;;10.47;100.00
47670;BME280;33408;52.062;11.722;2023-04-16T11:14:49;101573.56;;;10.46;100.00
47670;BME280;33408;52.062;11.722;2023-04-16T11:17:16;101568.44;;;10.28;100.00
47670;BME280;33408;52.062;11.722;2023-04-16T11:19:44;101575.38;;;10.18;100.00
47670;BME280;33408;52.062;11.722;2023-04-16T11:22:12;101571.13;;;10.03;100.00
47670;BME280;33408;52.062;11.722;2023-04-16T11:24:41;101575.38;;;10.15;100.00
47670;BME280;33408;52.062;11.722;2023-04-16T11:27:08;101575.38;;;10.24;100.00
47670;BME280;33408;52.062;11.722;2023-04-16T11:29:35;101583.91;;;10.49;100.00
47670;BME280;33408;52.062;11.722;2023-04-16T11:32:02;101581.44;;;10.12;100.00
47670;BME280;33408;52.062;11.722;2023-04-16T11:34:29;101584.06;;;9.94;100.00
47670;BME280;33408;52.062;11.722;2023-04-16T11:36:59;101583.16;;;10.16;100.00
47670;BME280;33408;52.062;11.722;2023-04-16T11:39:25;101592.63;;;10.19;100.00
47670;BME280;33408;52.062;11.722;2023-04-16T11:41:52;101589.19;;;10.14;100.00
47670;BME280;33408;52.062;11.722;2023-04-16T11:44:21;101587.50;;;10.11;100.00
47670;BME280;33408;52.062;11.722;2023-04-16T11:46:49;101592.66;;;10.16;100.00
47670;BME280;33408;52.062;11.722;2023-04-16T11:49:16;101594.38;;;10.18;100.00
47670;BME280;33408;52.062;11.722;2023-04-16T11:51:44;101590.94;;;10.12;100.00
47670;BME280;33408;52.062;11.722;2023-04-16T11:54:19;101598.69;;;10.18;100.00
47670;BME280;33408;52.062;11.722;2023-04-16T11:56:47;101597.78;;;10.23;100.00
47670;BME280;33408;52.062;11.722;2023-04-16T11:59:15;101606.47;;;10.18;100.00
47670;BME280;33408;52.062;11.722;2023-04-16T12:01:45;101605.56;;;10.23;100.00
47670;BME280;33408;52.062;11.722;2023-04-16T12:04:12;101603.91;;;10.07;100.00
47670;BME280;33408;52.062;11.722;2023-04-16T12:06:40;101608.22;;;10.08;100.00
47670;BME280;33408;52.062;11.722;2023-04-16T12:09:25;101607.31;;;10.25;100.00
47670;BME280;33408;52.062;11.722;2023-04-16T12:11:52;101610.78;;;10.33;100.00
47670;BME280;33408;52.062;11.722;2023-04-16T12:14:19;101616.78;;;10.30;100.00
47670;BME280;33408;52.062;11.722;2023-04-16T12:16:45;101608.16;;;10.40;100.00
47670;BME280;33408;52.062;11.722;2023-04-16T12:19:15;101609.00;;;10.46;100.00
47670;BME280;33408;52.062;11.722;2023-04-16T12:21:44;101610.72;;;10.48;100.00
47670;BME280;33408;52.062;11.722;2023-04-16T12:24:12;101602.88;;;10.56;100.00
47670;BME280;33408;52.062;11.722;2023-04-16T12:26:42;101601.28;;;10.18;100.00
47670;BME280;33408;52.062;11.722;2023-04-16T12:29:16;101606.41;;;10.30;100.00
47670;BME280;33408;52.062;11.722;2023-04-16T12:31:43;101605.59;;;10.19;100.00
47670;BME280;33408;52.062;11.722;2023-04-16T12:34:10;101612.47;;;10.31;100.00
47670;BME280;33408;52.062;11.722;2023-04-16T12:36:37;101611.66;;;10.19;100.00
47670;BME280;33408;52.062;11.722;2023-04-16T12:39:03;101614.19;;;10.43;100.00